createdAt,value
2022-12-26T00:00:01.549Z,98863.79
2022-12-26T00:00:11.618Z,98861.64
2022-12-26T00:00:21.621Z,98854.80
2022-12-26T00:00:31.692Z,98854.67
2022-12-26T00:00:41.635Z,98860.36
2022-12-26T00:00:51.696Z,98858.05
2022-12-26T00:01:01.640Z,98856.81
2022-12-26T00:01:11.540Z,98851.84
2022-12-26T00:01:21.598Z,98856.11
2022-12-26T00:01:31.536Z,98846.68
2022-12-26T00:01:41.533Z,98847.75
2022-12-26T00:01:51.582Z,98858.59
2022-12-26T00:02:01.622Z,98858.78
2022-12-26T00:02:11.631Z,98860.77
2022-12-26T00:02:21.572Z,98857.97
2022-12-26T00:02:31.707Z,98854.33
2022-12-26T00:02:41.710Z,98852.01
2022-12-26T00:02:51.780Z,98854.06
2022-12-26T00:03:01.743Z,98853.73
2022-12-26T00:03:11.668Z,98852.27
2022-12-26T00:03:21.599Z,98853.98
2022-12-26T00:03:31.699Z,98854.53
2022-12-26T00:03:41.800Z,98850.55
2022-12-26T00:03:51.707Z,98853.77
2022-12-26T00:04:01.774Z,98854.50
2022-12-26T00:04:48.949Z,98849.14
2022-12-26T00:04:48.971Z,98856.28
2022-12-26T00:04:51.736Z,98844.05
2022-12-26T00:04:51.798Z,98848.93
2022-12-26T00:04:53.572Z,98852.08
2022-12-26T00:05:01.684Z,98846.44
2022-12-26T00:05:11.543Z,98849.09
2022-12-26T00:05:21.650Z,98841.64
2022-12-26T00:05:31.599Z,98844.08
2022-12-26T00:05:41.637Z,98849.97
2022-12-26T00:05:51.621Z,98854.83
2022-12-26T00:06:01.598Z,98854.06
2022-12-26T00:06:11.594Z,98848.88
2022-12-26T00:06:21.547Z,98848.12
2022-12-26T00:06:31.628Z,98847.72
2022-12-26T00:06:41.547Z,98849.38
2022-12-26T00:06:51.573Z,98845.82
2022-12-26T00:07:01.565Z,98844.73
2022-12-26T00:07:11.544Z,98840.92
2022-12-26T00:07:21.620Z,98843.36
2022-12-26T00:07:31.573Z,98844.09
2022-12-26T00:07:41.530Z,98839.50
2022-12-26T00:07:51.639Z,98841.20
2022-12-26T00:08:01.532Z,98845.40
2022-12-26T00:08:11.523Z,98843.48
2022-12-26T00:08:21.707Z,98845.47
2022-12-26T00:08:31.570Z,98843.01
2022-12-26T00:08:41.651Z,98839.16
2022-12-26T00:08:51.636Z,98839.25
2022-12-26T00:09:01.628Z,98834.92
2022-12-26T00:09:11.600Z,98841.55
2022-12-26T00:09:21.575Z,98842.44
2022-12-26T00:09:31.615Z,98837.31
2022-12-26T00:09:41.551Z,98834.70
2022-12-26T00:09:51.647Z,98839.25
2022-12-26T00:10:01.579Z,98843.96
2022-12-26T00:10:11.570Z,98842.28
2022-12-26T00:10:21.560Z,98846.30
2022-12-26T00:10:31.604Z,98845.88
2022-12-26T00:10:41.567Z,98840.69
2022-12-26T00:10:51.592Z,98844.62
2022-12-26T00:11:01.560Z,98837.78
2022-12-26T00:11:11.662Z,98839.67
2022-12-26T00:11:21.604Z,98843.80
2022-12-26T00:11:31.558Z,98843.12
2022-12-26T00:11:41.646Z,98849.09
2022-12-26T00:11:51.651Z,98846.98
2022-12-26T00:12:01.565Z,98841.49
2022-12-26T00:12:11.572Z,98837.23
2022-12-26T00:12:21.532Z,98838.88
2022-12-26T00:12:31.566Z,98841.37
2022-12-26T00:12:41.575Z,98841.92
2022-12-26T00:12:51.616Z,98844.00
2022-12-26T00:13:37.171Z,98842.22
2022-12-26T00:13:39.659Z,98844.35
2022-12-26T00:13:39.697Z,98846.81
2022-12-26T00:13:40.343Z,98845.81
2022-12-26T00:13:41.964Z,98847.48
2022-12-26T00:13:51.665Z,98847.48
2022-12-26T00:14:01.626Z,98847.83
2022-12-26T00:14:11.556Z,98857.44
2022-12-26T00:14:21.577Z,98849.14
2022-12-26T00:14:31.653Z,98842.67
2022-12-26T00:14:41.674Z,98848.88
2022-12-26T00:14:51.551Z,98851.42
2022-12-26T00:15:01.577Z,98844.95
2022-12-26T00:15:11.595Z,98842.66
2022-12-26T00:15:21.623Z,98838.29
2022-12-26T00:15:31.677Z,98839.14
2022-12-26T00:15:41.542Z,98844.59
2022-12-26T00:15:51.652Z,98848.20
2022-12-26T00:16:01.583Z,98845.66
2022-12-26T00:16:11.663Z,98840.96
2022-12-26T00:16:21.594Z,98842.34
2022-12-26T00:16:31.780Z,98838.59
2022-12-26T00:16:41.656Z,98844.00
2022-12-26T00:16:51.653Z,98844.66
2022-12-26T00:17:01.600Z,98847.31
2022-12-26T00:17:11.591Z,98844.94
2022-12-26T00:17:21.553Z,98840.96
2022-12-26T00:17:31.581Z,98836.41
2022-12-26T00:17:41.599Z,98835.42
2022-12-26T00:17:51.524Z,98840.06
2022-12-26T00:18:01.562Z,98839.34
2022-12-26T00:18:11.662Z,98839.67
2022-12-26T00:18:21.554Z,98833.80
2022-12-26T00:18:31.607Z,98833.47
2022-12-26T00:18:41.542Z,98836.71
2022-12-26T00:18:51.655Z,98833.56
2022-12-26T00:19:01.652Z,98836.05
2022-12-26T00:19:11.570Z,98832.56
2022-12-26T00:19:21.604Z,98842.02
2022-12-26T00:19:31.548Z,98835.12
2022-12-26T00:19:41.642Z,98838.05
2022-12-26T00:19:51.540Z,98843.50
2022-12-26T00:20:01.592Z,98838.55
2022-12-26T00:20:11.525Z,98838.80
2022-12-26T00:20:21.612Z,98838.94
2022-12-26T00:20:31.588Z,98836.23
2022-12-26T00:20:41.563Z,98835.62
2022-12-26T00:20:51.545Z,98830.41
2022-12-26T00:21:01.557Z,98830.25
2022-12-26T00:21:11.561Z,98837.35
2022-12-26T00:21:21.554Z,98830.78
2022-12-26T00:21:31.606Z,98835.70
2022-12-26T00:21:41.545Z,98829.73
2022-12-26T00:21:51.607Z,98829.90
2022-12-26T00:22:01.691Z,98830.39
2022-12-26T00:22:11.548Z,98832.81
2022-12-26T00:22:21.543Z,98833.70
2022-12-26T00:22:31.651Z,98826.23
2022-12-26T00:22:41.524Z,98829.88
2022-12-26T00:22:51.531Z,98828.22
2022-12-26T00:23:01.632Z,98830.54
2022-12-26T00:23:11.575Z,98832.86
2022-12-26T00:23:21.560Z,98831.09
2022-12-26T00:23:31.606Z,98832.42
2022-12-26T00:23:41.586Z,98829.34
2022-12-26T00:23:51.641Z,98829.20
2022-12-26T00:24:01.554Z,98826.28
2022-12-26T00:24:11.579Z,98831.84
2022-12-26T00:24:21.551Z,98829.03
2022-12-26T00:24:31.649Z,98826.05
2022-12-26T00:24:41.611Z,98830.12
2022-12-26T00:24:51.652Z,98827.05
2022-12-26T00:25:01.609Z,98827.54
2022-12-26T00:25:11.616Z,98829.45
2022-12-26T00:25:21.564Z,98835.59
2022-12-26T00:25:31.558Z,98825.00
2022-12-26T00:25:41.640Z,98823.02
2022-12-26T00:25:51.570Z,98830.21
2022-12-26T00:26:01.557Z,98830.38
2022-12-26T00:26:11.640Z,98823.19
2022-12-26T00:26:21.619Z,98826.33
2022-12-26T00:26:31.653Z,98829.81
2022-12-26T00:26:41.662Z,98832.84
2022-12-26T00:26:51.620Z,98830.36
2022-12-26T00:27:01.629Z,98831.08
2022-12-26T00:27:11.572Z,98834.89
2022-12-26T00:27:21.615Z,98835.75
2022-12-26T00:27:31.663Z,98838.38
2022-12-26T00:27:41.528Z,98834.91
2022-12-26T00:27:51.581Z,98833.08
2022-12-26T00:28:01.619Z,98831.72
2022-12-26T00:28:11.623Z,98837.11
2022-12-26T00:28:21.573Z,98834.46
2022-12-26T00:28:31.549Z,98838.27
2022-12-26T00:28:41.622Z,98834.37
2022-12-26T00:28:51.532Z,98838.55
2022-12-26T00:29:01.641Z,98840.45
2022-12-26T00:29:11.659Z,98834.89
2022-12-26T00:29:21.625Z,98841.52
2022-12-26T00:29:31.630Z,98837.58
2022-12-26T00:29:41.546Z,98836.27
2022-12-26T00:29:51.602Z,98839.97
2022-12-26T00:30:01.678Z,98838.26
2022-12-26T00:30:11.589Z,98833.09
2022-12-26T00:30:21.532Z,98836.44
2022-12-26T00:30:31.631Z,98835.86
2022-12-26T00:30:41.618Z,98826.20
2022-12-26T00:30:51.554Z,98830.73
2022-12-26T00:31:01.679Z,98829.84
2022-12-26T00:31:11.615Z,98827.50
2022-12-26T00:31:21.626Z,98828.50
2022-12-26T00:31:31.578Z,98822.03
2022-12-26T00:31:41.720Z,98825.04
2022-12-26T00:31:51.685Z,98826.20
2022-12-26T00:32:01.597Z,98823.55
2022-12-26T00:32:11.592Z,98817.31
2022-12-26T00:32:21.539Z,98816.53
2022-12-26T00:32:31.532Z,98816.53
2022-12-26T00:32:41.633Z,98819.11
2022-12-26T00:32:51.655Z,98820.62
2022-12-26T00:33:01.633Z,98825.69
2022-12-26T00:33:11.534Z,98820.45
2022-12-26T00:33:21.542Z,98817.14
2022-12-26T00:33:31.533Z,98820.45
2022-12-26T00:33:41.555Z,98823.11
2022-12-26T00:33:51.656Z,98819.91
2022-12-26T00:34:01.594Z,98815.67
2022-12-26T00:34:11.599Z,98818.06
2022-12-26T00:34:21.648Z,98821.21
2022-12-26T00:34:31.603Z,98822.39
2022-12-26T00:34:41.643Z,98823.88
2022-12-26T00:34:51.642Z,98821.85
2022-12-26T00:35:01.584Z,98818.42
2022-12-26T00:35:11.622Z,98817.92
2022-12-26T00:35:21.628Z,98822.23
2022-12-26T00:35:31.635Z,98830.41
2022-12-26T00:35:41.574Z,98830.08
2022-12-26T00:35:51.554Z,98823.62
2022-12-26T00:36:01.559Z,98825.35
2022-12-26T00:36:11.593Z,98820.49
2022-12-26T00:36:21.525Z,98833.82
2022-12-26T00:36:31.596Z,98836.80
2022-12-26T00:36:41.529Z,98827.73
2022-12-26T00:36:51.554Z,98830.73
2022-12-26T00:37:01.561Z,98823.45
2022-12-26T00:37:11.569Z,98825.50
2022-12-26T00:37:21.608Z,98826.73
2022-12-26T00:37:31.552Z,98822.61
2022-12-26T00:37:41.590Z,98818.38
2022-12-26T00:37:51.563Z,98823.07
2022-12-26T00:38:01.530Z,98827.64
2022-12-26T00:38:11.623Z,98831.35
2022-12-26T00:38:21.644Z,98832.95
2022-12-26T00:38:31.660Z,98830.23
2022-12-26T00:38:41.619Z,98829.03
2022-12-26T00:38:51.608Z,98831.84
2022-12-26T00:39:01.624Z,98825.39
2022-12-26T00:39:11.599Z,98827.55
2022-12-26T00:39:21.603Z,98823.42
2022-12-26T00:39:31.633Z,98823.75
2022-12-26T00:39:41.598Z,98824.54
2022-12-26T00:39:51.608Z,98826.53
2022-12-26T00:40:01.544Z,98825.97
2022-12-26T00:40:11.610Z,98826.05
2022-12-26T00:40:21.562Z,98830.66
2022-12-26T00:40:31.541Z,98827.84
2022-12-26T00:40:41.547Z,98825.68
2022-12-26T00:40:51.524Z,98830.08
2022-12-26T00:41:01.537Z,98835.79
2022-12-26T00:41:11.586Z,98833.14
2022-12-26T00:41:21.575Z,98833.00
2022-12-26T00:41:31.540Z,98831.17
2022-12-26T00:41:41.582Z,98826.67
2022-12-26T00:41:51.649Z,98826.67
2022-12-26T00:42:01.583Z,98831.50
2022-12-26T00:42:11.575Z,98829.80
2022-12-26T00:42:21.579Z,98831.50
2022-12-26T00:42:31.597Z,98833.05
2022-12-26T00:42:41.544Z,98831.89
2022-12-26T00:42:51.599Z,98832.88
2022-12-26T00:43:01.557Z,98831.89
2022-12-26T00:43:11.562Z,98831.94
2022-12-26T00:43:21.611Z,98826.75
2022-12-26T00:43:31.544Z,98830.80
2022-12-26T00:43:41.619Z,98824.81
2022-12-26T00:43:51.639Z,98825.81
2022-12-26T00:44:01.532Z,98825.19
2022-12-26T00:44:11.551Z,98827.89
2022-12-26T00:44:21.640Z,98828.30
2022-12-26T00:44:31.611Z,98827.58
2022-12-26T00:44:41.576Z,98823.44
2022-12-26T00:44:51.642Z,98826.59
2022-12-26T00:45:01.694Z,98820.20
2022-12-26T00:45:11.651Z,98826.82
2022-12-26T00:45:21.561Z,98824.71
2022-12-26T00:45:31.565Z,98818.70
2022-12-26T00:45:41.649Z,98825.73
2022-12-26T00:45:51.606Z,98825.35
2022-12-26T00:46:01.605Z,98828.28
2022-12-26T00:46:11.652Z,98833.03
2022-12-26T00:46:21.559Z,98832.83
2022-12-26T00:46:31.588Z,98829.94
2022-12-26T00:46:41.659Z,98823.83
2022-12-26T00:46:51.641Z,98821.91
2022-12-26T00:47:01.708Z,98825.16
2022-12-26T00:47:11.701Z,98827.16
2022-12-26T00:47:21.543Z,98830.38
2022-12-26T00:47:31.530Z,98832.20
2022-12-26T00:47:41.560Z,98830.38
2022-12-26T00:47:51.588Z,98834.91
2022-12-26T00:48:01.574Z,98831.59
2022-12-26T00:48:11.534Z,98829.94
2022-12-26T00:48:21.644Z,98830.53
2022-12-26T00:48:31.616Z,98826.03
2022-12-26T00:48:41.598Z,98833.30
2022-12-26T00:48:51.552Z,98836.33
2022-12-26T00:49:01.567Z,98829.44
2022-12-26T00:49:11.609Z,98827.06
2022-12-26T00:49:21.624Z,98830.27
2022-12-26T00:50:11.268Z,98828.45
2022-12-26T00:50:12.297Z,98830.67
2022-12-26T00:50:13.406Z,98830.66
2022-12-26T00:50:14.307Z,98828.83
2022-12-26T00:50:15.690Z,98825.68
2022-12-26T00:50:21.640Z,98826.03
2022-12-26T00:50:34.837Z,98827.10
2022-12-26T00:50:41.533Z,98822.06
2022-12-26T00:50:51.578Z,98826.02
2022-12-26T00:51:01.630Z,98822.30
2022-12-26T00:51:11.556Z,98824.19
2022-12-26T00:51:21.524Z,98827.98
2022-12-26T00:51:31.583Z,98829.00
2022-12-26T00:51:41.645Z,98828.27
2022-12-26T00:51:51.555Z,98830.67
2022-12-26T00:52:01.621Z,98824.86
2022-12-26T00:52:11.610Z,98830.41
2022-12-26T00:52:21.638Z,98828.78
2022-12-26T00:52:31.597Z,98832.42
2022-12-26T00:52:41.619Z,98831.50
2022-12-26T00:52:51.659Z,98826.98
2022-12-26T00:53:01.530Z,98833.20
2022-12-26T00:53:11.527Z,98831.80
2022-12-26T00:53:21.604Z,98827.09
2022-12-26T00:53:31.539Z,98823.94
2022-12-26T00:53:41.595Z,98822.94
2022-12-26T00:53:51.639Z,98822.45
2022-12-26T00:54:01.578Z,98826.02
2022-12-26T00:54:11.562Z,98824.45
2022-12-26T00:54:21.583Z,98820.95
2022-12-26T00:54:31.551Z,98820.12
2022-12-26T00:54:41.619Z,98823.53
2022-12-26T00:54:51.560Z,98820.48
2022-12-26T00:55:01.623Z,98819.23
2022-12-26T00:55:11.644Z,98821.10
2022-12-26T00:55:21.582Z,98821.64
2022-12-26T00:55:31.583Z,98821.20
2022-12-26T00:55:41.584Z,98823.59
2022-12-26T00:55:51.555Z,98824.29
2022-12-26T00:56:01.575Z,98829.05
2022-12-26T00:56:11.647Z,98826.84
2022-12-26T00:56:21.587Z,98833.88
2022-12-26T00:56:31.583Z,98834.91
2022-12-26T00:56:41.547Z,98822.06
2022-12-26T00:56:51.540Z,98825.78
2022-12-26T00:57:01.577Z,98824.38
2022-12-26T00:57:11.522Z,98829.00
2022-12-26T00:57:21.624Z,98822.11
2022-12-26T00:57:31.599Z,98823.70
2022-12-26T00:57:41.544Z,98817.33
2022-12-26T00:57:51.578Z,98824.16
2022-12-26T00:58:01.530Z,98824.77
2022-12-26T00:58:11.570Z,98826.26
2022-12-26T00:58:21.601Z,98824.39
2022-12-26T00:58:31.620Z,98832.02
2022-12-26T00:58:41.553Z,98823.75
2022-12-26T00:58:51.554Z,98828.70
2022-12-26T00:59:01.542Z,98828.43
2022-12-26T00:59:11.536Z,98826.77
2022-12-26T00:59:21.644Z,98823.03
2022-12-26T00:59:31.574Z,98820.14
2022-12-26T00:59:41.552Z,98820.62
2022-12-26T00:59:51.630Z,98817.44
2022-12-26T01:00:01.545Z,98820.25
2022-12-26T01:00:11.608Z,98816.20
2022-12-26T01:00:21.600Z,98819.34
2022-12-26T01:00:31.613Z,98815.86
2022-12-26T01:00:41.660Z,98815.91
2022-12-26T01:00:51.612Z,98817.59
2022-12-26T01:01:01.599Z,98816.27
2022-12-26T01:01:11.923Z,98816.42
2022-12-26T01:01:21.784Z,98818.47
2022-12-26T01:01:31.833Z,98829.07
2022-12-26T01:01:41.874Z,98828.81
2022-12-26T01:01:51.765Z,98825.92
2022-12-26T01:02:01.772Z,98823.05
2022-12-26T01:02:11.792Z,98829.02
2022-12-26T01:02:21.727Z,98829.92
2022-12-26T01:02:31.822Z,98828.02
2022-12-26T01:02:41.810Z,98830.67
2022-12-26T01:02:51.798Z,98827.34
2022-12-26T01:03:01.621Z,98831.31
2022-12-26T01:03:11.600Z,98830.66
2022-12-26T01:03:21.688Z,98830.16
2022-12-26T01:03:31.576Z,98826.18
2022-12-26T01:03:41.600Z,98828.17
2022-12-26T01:03:51.640Z,98826.84
2022-12-26T01:04:01.558Z,98824.86
2022-12-26T01:04:11.542Z,98827.84
2022-12-26T01:04:21.642Z,98824.86
2022-12-26T01:04:31.576Z,98828.50
2022-12-26T01:04:41.581Z,98826.62
2022-12-26T01:04:51.616Z,98827.95
2022-12-26T01:05:01.600Z,98831.03
2022-12-26T01:05:11.533Z,98828.12
2022-12-26T01:05:21.521Z,98830.38
2022-12-26T01:05:31.539Z,98826.24
2022-12-26T01:05:41.532Z,98826.41
2022-12-26T01:05:51.566Z,98830.38
2022-12-26T01:06:01.523Z,98832.53
2022-12-26T01:06:11.574Z,98830.78
2022-12-26T01:06:21.594Z,98832.02
2022-12-26T01:06:31.641Z,98834.69
2022-12-26T01:06:41.595Z,98832.22
2022-12-26T01:06:51.639Z,98829.27
2022-12-26T01:07:01.630Z,98837.17
2022-12-26T01:07:11.578Z,98833.07
2022-12-26T01:07:21.610Z,98830.56
2022-12-26T01:07:31.575Z,98832.05
2022-12-26T01:08:19.447Z,98831.50
2022-12-26T01:08:19.544Z,98829.19
2022-12-26T01:08:19.596Z,98831.67
2022-12-26T01:08:22.573Z,98829.90
2022-12-26T01:08:24.802Z,98833.40
2022-12-26T01:08:31.612Z,98833.23
2022-12-26T01:08:41.614Z,98829.11
2022-12-26T01:08:51.537Z,98829.27
2022-12-26T01:09:01.606Z,98831.42
2022-12-26T01:09:11.584Z,98829.55
2022-12-26T01:09:21.551Z,98834.45
2022-12-26T01:09:31.564Z,98835.19
2022-12-26T01:09:41.561Z,98838.42
2022-12-26T01:09:51.555Z,98832.46
2022-12-26T01:10:01.552Z,98829.48
2022-12-26T01:10:11.589Z,98826.29
2022-12-26T01:10:21.566Z,98833.59
2022-12-26T01:10:31.611Z,98829.90
2022-12-26T01:10:41.601Z,98829.42
2022-12-26T01:10:51.616Z,98831.56
2022-12-26T01:11:01.575Z,98836.51
2022-12-26T01:11:11.632Z,98839.81
2022-12-26T01:11:21.586Z,98836.05
2022-12-26T01:11:31.523Z,98837.11
2022-12-26T01:11:41.671Z,98832.80
2022-12-26T01:11:51.527Z,98839.95
2022-12-26T01:12:01.588Z,98832.12
2022-12-26T01:12:11.609Z,98838.42
2022-12-26T01:12:21.587Z,98842.71
2022-12-26T01:12:31.640Z,98838.69
2022-12-26T01:12:41.641Z,98836.79
2022-12-26T01:12:51.626Z,98841.50
2022-12-26T01:13:01.592Z,98834.81
2022-12-26T01:13:11.564Z,98840.12
2022-12-26T01:13:21.590Z,98835.65
2022-12-26T01:13:31.598Z,98833.66
2022-12-26T01:13:41.526Z,98837.61
2022-12-26T01:13:51.623Z,98837.47
2022-12-26T01:14:01.545Z,98842.25
2022-12-26T01:14:11.625Z,98843.36
2022-12-26T01:14:21.534Z,98837.47
2022-12-26T01:14:31.619Z,98842.86
2022-12-26T01:14:41.624Z,98835.52
2022-12-26T01:14:51.608Z,98834.36
2022-12-26T01:15:01.623Z,98829.22
2022-12-26T01:15:11.615Z,98829.39
2022-12-26T01:15:21.567Z,98831.17
2022-12-26T01:15:31.573Z,98835.48
2022-12-26T01:15:41.603Z,98837.17
2022-12-26T01:15:51.602Z,98835.04
2022-12-26T01:16:01.667Z,98836.18
2022-12-26T01:16:11.591Z,98833.03
2022-12-26T01:16:21.638Z,98839.12
2022-12-26T01:16:31.681Z,98838.64
2022-12-26T01:16:41.794Z,98836.45
2022-12-26T01:16:51.627Z,98837.70
2022-12-26T01:17:01.631Z,98837.97
2022-12-26T01:17:11.578Z,98838.98
2022-12-26T01:17:21.596Z,98836.28
2022-12-26T01:17:31.658Z,98839.45
2022-12-26T01:17:41.531Z,98841.94
2022-12-26T01:17:51.531Z,98841.70
2022-12-26T01:18:01.540Z,98835.83
2022-12-26T01:18:11.572Z,98831.48
2022-12-26T01:18:21.563Z,98834.30
2022-12-26T01:18:31.527Z,98834.13
2022-12-26T01:18:41.644Z,98836.22
2022-12-26T01:18:51.581Z,98844.50
2022-12-26T01:19:01.716Z,98841.61
2022-12-26T01:19:11.689Z,98842.44
2022-12-26T01:19:21.567Z,98838.77
2022-12-26T01:19:31.684Z,98835.45
2022-12-26T01:19:41.650Z,98840.30
2022-12-26T01:19:51.655Z,98837.78
2022-12-26T01:20:01.670Z,98840.61
2022-12-26T01:20:11.547Z,98837.47
2022-12-26T01:20:21.571Z,98832.84
2022-12-26T01:20:31.559Z,98833.42
2022-12-26T01:20:41.533Z,98836.41
2022-12-26T01:20:51.545Z,98834.01
2022-12-26T01:21:01.614Z,98837.28
2022-12-26T01:21:11.584Z,98832.84
2022-12-26T01:21:21.628Z,98829.20
2022-12-26T01:21:31.615Z,98836.14
2022-12-26T01:21:41.562Z,98840.59
2022-12-26T01:21:51.519Z,98836.41
2022-12-26T01:22:01.630Z,98836.63
2022-12-26T01:22:11.569Z,98835.84
2022-12-26T01:22:21.598Z,98835.48
2022-12-26T01:22:31.521Z,98829.61
2022-12-26T01:22:41.521Z,98833.20
2022-12-26T01:22:51.563Z,98834.65
2022-12-26T01:23:01.638Z,98841.62
2022-12-26T01:23:11.625Z,98839.88
2022-12-26T01:23:21.602Z,98827.95
2022-12-26T01:23:31.557Z,98830.93
2022-12-26T01:23:41.560Z,98826.46
2022-12-26T01:23:51.603Z,98831.36
2022-12-26T01:24:01.627Z,98836.12
2022-12-26T01:24:11.571Z,98831.59
2022-12-26T01:24:21.553Z,98834.41
2022-12-26T01:24:31.609Z,98833.32
2022-12-26T01:24:41.529Z,98844.42
2022-12-26T01:24:51.572Z,98830.30
2022-12-26T01:25:01.620Z,98833.67
2022-12-26T01:25:11.603Z,98840.06
2022-12-26T01:25:21.543Z,98838.33
2022-12-26T01:25:31.582Z,98833.84
2022-12-26T01:26:17.690Z,98836.06
2022-12-26T01:26:18.690Z,98835.23
2022-12-26T01:26:18.773Z,98837.06
2022-12-26T01:26:19.170Z,98836.63
2022-12-26T01:26:21.604Z,98838.12
2022-12-26T01:26:31.643Z,98837.30
2022-12-26T01:26:41.618Z,98833.36
2022-12-26T01:26:51.601Z,98832.50
2022-12-26T01:27:01.620Z,98826.79
2022-12-26T01:27:11.535Z,98829.50
2022-12-26T01:27:21.582Z,98827.53
2022-12-26T01:27:31.594Z,98832.23
2022-12-26T01:27:41.630Z,98827.67
2022-12-26T01:27:51.623Z,98832.05
2022-12-26T01:28:01.587Z,98831.48
2022-12-26T01:28:11.612Z,98832.94
2022-12-26T01:28:21.574Z,98834.28
2022-12-26T01:28:31.629Z,98834.28
2022-12-26T01:28:41.626Z,98832.34
2022-12-26T01:28:51.567Z,98833.17
2022-12-26T01:29:01.593Z,98834.59
2022-12-26T01:29:11.567Z,98836.75
2022-12-26T01:29:21.645Z,98837.54
2022-12-26T01:29:31.533Z,98833.27
2022-12-26T01:29:41.549Z,98822.66
2022-12-26T01:29:51.538Z,98823.66
2022-12-26T01:30:01.626Z,98830.25
2022-12-26T01:30:11.580Z,98829.67
2022-12-26T01:30:21.538Z,98832.50
2022-12-26T01:30:31.587Z,98830.59
2022-12-26T01:30:41.597Z,98829.89
2022-12-26T01:30:51.580Z,98825.30
2022-12-26T01:31:01.535Z,98829.79
2022-12-26T01:31:11.652Z,98832.06
2022-12-26T01:31:21.668Z,98833.72
2022-12-26T01:31:31.565Z,98833.89
2022-12-26T01:31:41.657Z,98836.88
2022-12-26T01:31:51.671Z,98828.68
2022-12-26T01:32:01.663Z,98826.78
2022-12-26T01:32:11.700Z,98834.95
2022-12-26T01:32:21.587Z,98835.12
2022-12-26T01:32:31.524Z,98835.30
2022-12-26T01:32:41.591Z,98833.97
2022-12-26T01:32:51.534Z,98834.84
2022-12-26T01:33:01.540Z,98831.20
2022-12-26T01:33:11.619Z,98835.86
2022-12-26T01:33:21.558Z,98838.64
2022-12-26T01:33:31.549Z,98840.06
2022-12-26T01:33:41.660Z,98839.75
2022-12-26T01:33:51.663Z,98841.88
2022-12-26T01:34:01.615Z,98835.20
2022-12-26T01:34:11.653Z,98839.84
2022-12-26T01:34:21.630Z,98843.98
2022-12-26T01:34:31.591Z,98841.95
2022-12-26T01:34:41.516Z,98845.49
2022-12-26T01:34:51.569Z,98848.45
2022-12-26T01:35:01.590Z,98843.80
2022-12-26T01:35:11.606Z,98842.80
2022-12-26T01:35:21.572Z,98846.44
2022-12-26T01:35:31.550Z,98842.98
2022-12-26T01:35:41.525Z,98842.84
2022-12-26T01:35:51.580Z,98842.63
2022-12-26T01:36:01.538Z,98841.47
2022-12-26T01:36:11.556Z,98843.98
2022-12-26T01:36:21.625Z,98840.62
2022-12-26T01:36:31.652Z,98844.61
2022-12-26T01:36:41.690Z,98842.83
2022-12-26T01:36:51.573Z,98844.98
2022-12-26T01:37:01.597Z,98844.44
2022-12-26T01:37:11.550Z,98839.75
2022-12-26T01:37:21.543Z,98838.92
2022-12-26T01:37:31.598Z,98839.18
2022-12-26T01:37:41.743Z,98841.05
2022-12-26T01:37:51.628Z,98844.70
2022-12-26T01:38:01.522Z,98843.61
2022-12-26T01:38:11.540Z,98840.79
2022-12-26T01:38:21.616Z,98839.01
2022-12-26T01:38:31.645Z,98840.22
2022-12-26T01:38:41.642Z,98841.72
2022-12-26T01:38:51.603Z,98842.12
2022-12-26T01:39:01.599Z,98840.89
2022-12-26T01:39:11.565Z,98845.97
2022-12-26T01:39:21.575Z,98843.17
2022-12-26T01:39:31.569Z,98841.47
2022-12-26T01:39:41.563Z,98842.47
2022-12-26T01:39:51.615Z,98836.85
2022-12-26T01:40:01.566Z,98837.45
2022-12-26T01:40:11.654Z,98837.94
2022-12-26T01:40:21.621Z,98837.33
2022-12-26T01:40:31.528Z,98839.52
2022-12-26T01:40:41.568Z,98840.24
2022-12-26T01:40:51.593Z,98843.12
2022-12-26T01:41:01.625Z,98840.58
2022-12-26T01:41:11.590Z,98852.34
2022-12-26T01:41:21.561Z,98844.57
2022-12-26T01:41:31.565Z,98840.48
2022-12-26T01:41:41.608Z,98842.56
2022-12-26T01:41:51.643Z,98843.55
2022-12-26T01:42:01.549Z,98845.38
2022-12-26T01:42:11.520Z,98842.89
2022-12-26T01:42:21.594Z,98844.11
2022-12-26T01:42:31.528Z,98840.22
2022-12-26T01:42:41.572Z,98844.99
2022-12-26T01:42:51.529Z,98845.98
2022-12-26T01:43:01.567Z,98841.88
2022-12-26T01:43:11.649Z,98840.31
2022-12-26T01:43:21.635Z,98844.22
2022-12-26T01:43:31.558Z,98843.88
2022-12-26T01:43:41.565Z,98844.81
2022-12-26T01:43:51.543Z,98848.56
2022-12-26T01:44:01.630Z,98853.86
2022-12-26T01:44:11.631Z,98846.07
2022-12-26T01:44:21.545Z,98858.88
2022-12-26T01:44:31.534Z,98853.79
2022-12-26T01:44:41.523Z,98845.98
2022-12-26T01:44:51.617Z,98851.35
2022-12-26T01:45:01.586Z,98850.69
2022-12-26T01:45:11.617Z,98845.20
2022-12-26T01:45:21.565Z,98846.36
2022-12-26T01:45:31.614Z,98847.17
2022-12-26T01:45:41.578Z,98851.05
2022-12-26T01:45:51.657Z,98846.09
2022-12-26T01:46:01.662Z,98847.03
2022-12-26T01:46:11.693Z,98849.16
2022-12-26T01:46:21.751Z,98847.83
2022-12-26T01:46:31.543Z,98847.78
2022-12-26T01:46:41.593Z,98850.32
2022-12-26T01:46:51.656Z,98847.74
2022-12-26T01:47:01.535Z,98847.55
2022-12-26T01:47:11.577Z,98847.72
2022-12-26T01:47:21.535Z,98845.22
2022-12-26T01:47:31.638Z,98845.33
2022-12-26T01:47:41.607Z,98842.89
2022-12-26T01:47:51.586Z,98846.75
2022-12-26T01:48:01.637Z,98839.08
2022-12-26T01:48:11.641Z,98840.59
2022-12-26T01:48:21.537Z,98846.30
2022-12-26T01:48:31.586Z,98844.59
2022-12-26T01:48:41.653Z,98841.28
2022-12-26T01:48:51.641Z,98845.99
2022-12-26T01:49:01.683Z,98844.00
2022-12-26T01:49:11.568Z,98840.19
2022-12-26T01:49:21.630Z,98843.06
2022-12-26T01:49:31.583Z,98845.44
2022-12-26T01:49:41.599Z,98846.98
2022-12-26T01:49:51.566Z,98843.34
2022-12-26T01:50:01.699Z,98844.59
2022-12-26T01:50:11.552Z,98846.75
2022-12-26T01:50:21.664Z,98853.83
2022-12-26T01:50:31.546Z,98846.70
2022-12-26T01:50:41.554Z,98846.21
2022-12-26T01:50:51.656Z,98839.27
2022-12-26T01:51:01.577Z,98847.06
2022-12-26T01:51:11.544Z,98847.39
2022-12-26T01:51:21.603Z,98845.41
2022-12-26T01:51:31.610Z,98846.06
2022-12-26T01:51:41.522Z,98844.74
2022-12-26T01:51:51.639Z,98840.77
2022-12-26T01:52:01.533Z,98839.84
2022-12-26T01:52:11.559Z,98841.42
2022-12-26T01:52:21.567Z,98841.66
2022-12-26T01:52:31.532Z,98840.59
2022-12-26T01:52:41.547Z,98843.70
2022-12-26T01:52:51.530Z,98847.04
2022-12-26T01:53:01.623Z,98849.62
2022-12-26T01:53:11.538Z,98845.92
2022-12-26T01:53:21.544Z,98845.72
2022-12-26T01:53:31.627Z,98846.05
2022-12-26T01:53:41.566Z,98847.31
2022-12-26T01:53:51.598Z,98846.98
2022-12-26T01:54:40.081Z,98847.43
2022-12-26T01:54:40.322Z,98848.31
2022-12-26T01:54:40.391Z,98850.70
2022-12-26T01:54:40.696Z,98845.94
2022-12-26T01:54:42.941Z,98853.73
2022-12-26T01:54:51.586Z,98853.56
2022-12-26T01:55:01.606Z,98849.99
2022-12-26T01:55:11.653Z,98850.56
2022-12-26T01:55:21.630Z,98854.96
2022-12-26T01:55:31.633Z,98852.55
2022-12-26T01:55:41.619Z,98855.48
2022-12-26T01:55:51.631Z,98856.64
2022-12-26T01:56:01.654Z,98860.71
2022-12-26T01:56:11.568Z,98854.25
2022-12-26T01:56:21.612Z,98857.39
2022-12-26T01:56:31.623Z,98865.59
2022-12-26T01:56:41.608Z,98858.12
2022-12-26T01:56:51.589Z,98859.20
2022-12-26T01:57:01.575Z,98857.30
2022-12-26T01:57:11.629Z,98857.89
2022-12-26T01:57:21.634Z,98858.30